createdAt,value
2016-08-15T00:00:21.190Z,85.99
2016-08-15T00:05:19.241Z,86.09
2016-08-15T00:10:16.835Z,86.76
2016-08-15T00:15:14.435Z,86.09
2016-08-15T00:20:12.012Z,85.99
2016-08-15T00:25:09.844Z,86.85
2016-08-15T00:30:07.535Z,86.47
2016-08-15T00:35:05.176Z,86.28
2016-08-15T00:40:02.871Z,86.57
2016-08-15T00:45:00.674Z,86.47
2016-08-15T00:49:58.350Z,86.47
2016-08-15T00:54:55.953Z,86.66
2016-08-15T00:59:53.656Z,86.85
2016-08-15T01:04:51.513Z,86.76
2016-08-15T01:09:49.242Z,86.18
2016-08-15T01:14:46.842Z,85.89
2016-08-15T01:19:44.739Z,86.28
2016-08-15T01:24:42.499Z,86.38
2016-08-15T01:29:40.491Z,86.09
2016-08-15T01:34:38.170Z,86.57
2016-08-15T01:39:35.924Z,86.57
2016-08-15T01:44:33.768Z,86.57
2016-08-15T01:49:31.317Z,86.66
2016-08-15T01:54:29.066Z,86.57
2016-08-15T01:59:26.753Z,87.01
2016-08-15T02:04:24.378Z,87.05
2016-08-15T02:09:21.979Z,87.29
2016-08-15T02:14:19.579Z,86.62
2016-08-15T02:19:17.354Z,86.95
2016-08-15T02:24:15.191Z,86.57
2016-08-15T02:29:12.820Z,86.91
2016-08-15T02:34:10.427Z,87.19
2016-08-15T02:39:08.115Z,87.10
2016-08-15T02:44:05.936Z,87.19
2016-08-15T02:49:03.713Z,87.58
2016-08-15T02:54:01.500Z,87.39
2016-08-15T02:58:59.213Z,87.68
2016-08-15T03:03:56.755Z,88.16
2016-08-15T03:08:54.388Z,87.68
2016-08-15T03:13:51.999Z,87.77
2016-08-15T03:18:49.996Z,87.77
2016-08-15T03:23:47.576Z,87.68
2016-08-15T03:28:45.369Z,87.96
2016-08-15T03:33:43.377Z,88.73
2016-08-15T03:38:41.215Z,89.02
2016-08-15T03:43:38.938Z,88.25
2016-08-15T03:48:36.700Z,88.73
2016-08-15T03:53:34.563Z,89.31
2016-08-15T03:58:32.249Z,89.22
2016-08-15T04:03:30.243Z,89.12
2016-08-15T04:08:27.893Z,89.40
2016-08-15T04:13:25.562Z,90.08
2016-08-15T04:18:23.148Z,89.79
2016-08-15T04:23:20.607Z,89.69
2016-08-15T04:28:18.391Z,89.79
2016-08-15T04:33:16.119Z,90.56
2016-08-15T04:38:14.197Z,91.42
2016-08-15T04:43:11.847Z,91.13
2016-08-15T04:48:09.643Z,91.13
2016-08-15T04:53:07.416Z,90.66
2016-08-15T04:58:05.032Z,90.84
2016-08-15T05:03:02.663Z,91.71
2016-08-15T05:08:00.444Z,91.23
2016-08-15T05:12:58.245Z,91.61
2016-08-15T05:17:55.934Z,90.94
2016-08-15T05:22:53.685Z,91.04
2016-08-15T05:27:51.464Z,91.23
2016-08-15T05:32:49.457Z,91.13
2016-08-15T05:37:47.010Z,90.66
2016-08-15T05:42:44.908Z,90.17
2016-08-15T05:47:42.780Z,90.51
2016-08-15T05:52:40.625Z,89.36
2016-08-15T05:57:38.183Z,88.59
2016-08-15T06:02:35.993Z,89.16
2016-08-15T06:07:33.727Z,89.40
2016-08-15T06:12:31.583Z,87.57
2016-08-15T06:17:29.289Z,87.38
2016-08-15T06:22:26.978Z,87.13
2016-08-15T06:27:24.678Z,86.18
2016-08-15T06:32:22.444Z,84.39
2016-08-15T06:37:20.262Z,84.29
2016-08-15T06:42:18.121Z,84.73
2016-08-15T06:47:15.961Z,85.21
2016-08-15T06:52:13.547Z,85.50
2016-08-15T06:57:11.038Z,85.98
2016-08-15T07:02:08.739Z,85.60
2016-08-15T07:07:06.354Z,86.36
2016-08-15T07:12:04.253Z,86.85
2016-08-15T07:17:01.977Z,86.27
2016-08-15T07:21:59.656Z,84.83
2016-08-15T07:26:57.596Z,84.77
2016-08-15T07:31:55.118Z,83.33
2016-08-15T07:36:53.136Z,83.19
2016-08-15T07:41:50.641Z,83.33
2016-08-15T07:46:48.816Z,82.23
2016-08-15T07:51:46.306Z,82.37
2016-08-15T07:56:44.242Z,82.56
2016-08-15T08:01:42.162Z,81.70
2016-08-15T08:06:39.895Z,81.25
2016-08-15T08:11:37.889Z,76.10
2016-08-15T08:16:36.370Z,70.87
2016-08-15T08:21:34.484Z,71.06
2016-08-15T08:26:32.736Z,70.29
2016-08-15T08:31:30.680Z,69.07
2016-08-15T08:36:28.755Z,68.55
2016-08-15T08:41:26.592Z,70.64
2016-08-15T08:46:24.206Z,69.62
2016-08-15T08:51:22.140Z,68.65
2016-08-15T08:56:19.453Z,69.00
2016-08-15T09:01:16.932Z,69.93
2016-08-15T09:06:14.355Z,69.84
2016-08-15T09:11:11.910Z,69.16
2016-08-15T09:16:09.613Z,69.49
2016-08-15T09:21:07.597Z,67.17
2016-08-15T09:26:05.258Z,64.86
2016-08-15T09:31:03.007Z,62.44
2016-08-15T09:36:00.737Z,64.56
2016-08-15T09:40:58.485Z,64.37
2016-08-15T09:45:56.385Z,64.15
2016-08-15T09:50:53.972Z,63.70
2016-08-15T09:55:51.449Z,62.92
2016-08-15T10:00:48.955Z,63.79
2016-08-15T10:05:46.976Z,62.92
2016-08-15T10:10:44.565Z,62.73
2016-08-15T10:15:42.371Z,62.63
2016-08-15T10:20:40.252Z,63.05
2016-08-15T10:25:37.806Z,62.57
2016-08-15T10:30:35.589Z,62.76
2016-08-15T10:35:33.339Z,62.08
2016-08-15T10:40:30.992Z,63.05
2016-08-15T10:45:28.590Z,62.25
2016-08-15T10:50:26.332Z,61.67
2016-08-15T10:55:23.919Z,61.96
2016-08-15T11:00:21.507Z,61.96
2016-08-15T11:05:19.102Z,62.25
2016-08-15T11:10:16.834Z,62.54
2016-08-15T11:15:14.393Z,62.57
2016-08-15T11:20:12.062Z,60.73
2016-08-15T11:25:09.752Z,59.48
2016-08-15T11:30:07.380Z,60.25
2016-08-15T11:35:05.049Z,59.67
2016-08-15T11:40:02.502Z,59.96
2016-08-15T11:45:00.094Z,58.12
2016-08-15T11:49:57.811Z,58.32
2016-08-15T11:54:55.687Z,57.54
2016-08-15T11:59:53.195Z,57.16
2016-08-15T12:04:51.063Z,56.99
2016-08-15T12:09:48.865Z,56.51
2016-08-15T12:14:46.522Z,55.65
2016-08-15T12:19:44.219Z,55.65
2016-08-15T12:24:41.977Z,55.65
2016-08-15T12:29:39.681Z,56.10
2016-08-15T12:34:37.230Z,56.00
2016-08-15T12:39:34.871Z,56.96
2016-08-15T12:44:32.468Z,58.51
2016-08-15T12:49:30.007Z,59.55
2016-08-15T12:54:27.596Z,59.74
2016-08-15T12:59:25.265Z,59.77
2016-08-15T13:04:22.878Z,59.38
2016-08-15T13:09:20.437Z,58.97
2016-08-15T13:14:18.180Z,59.55
2016-08-15T13:19:16.681Z,59.93
2016-08-15T13:24:14.040Z,60.44
2016-08-15T13:29:11.807Z,59.48
2016-08-15T13:34:09.423Z,59.86
2016-08-15T13:39:07.062Z,60.44
2016-08-15T13:44:04.558Z,60.44
2016-08-15T13:49:02.105Z,60.13
2016-08-15T13:53:59.604Z,60.93
2016-08-15T13:58:57.197Z,60.13
2016-08-15T14:03:54.777Z,59.38
2016-08-15T14:08:53.070Z,59.00
2016-08-15T14:13:50.978Z,60.16
2016-08-15T14:18:48.484Z,61.22
2016-08-15T14:23:45.955Z,61.47
2016-08-15T14:28:43.712Z,62.34
2016-08-15T14:33:41.385Z,61.67
2016-08-15T14:38:38.996Z,61.57
2016-08-15T14:43:37.096Z,62.82
2016-08-15T14:48:34.636Z,63.31
2016-08-15T14:53:32.046Z,64.18
2016-08-15T14:58:29.671Z,65.47
2016-08-15T15:03:27.261Z,67.40
2016-08-15T15:08:25.701Z,74.06
2016-08-15T15:13:23.165Z,64.31
2016-08-15T15:18:20.755Z,64.40
2016-08-15T15:23:18.430Z,63.82
2016-08-15T15:28:16.088Z,63.92
2016-08-15T15:33:13.778Z,64.50
2016-08-15T15:38:11.360Z,64.86
2016-08-15T15:43:09.145Z,64.76
2016-08-15T15:48:06.614Z,65.72
2016-08-15T15:53:04.281Z,65.62
2016-08-15T15:58:01.882Z,64.95
2016-08-15T16:02:59.595Z,64.86
2016-08-15T16:07:57.276Z,63.40
2016-08-15T16:12:54.750Z,65.05
2016-08-15T16:17:52.303Z,69.10
2016-08-15T16:22:49.928Z,68.23
2016-08-15T16:27:47.723Z,64.66
2016-08-15T16:32:45.444Z,65.24
2016-08-15T16:37:43.015Z,65.24
2016-08-15T16:42:40.879Z,66.01
2016-08-15T16:47:38.351Z,66.36
2016-08-15T16:52:36.157Z,65.98
2016-08-15T16:57:33.634Z,65.88
2016-08-15T17:02:31.276Z,68.62
2016-08-15T17:07:29.126Z,68.43
2016-08-15T17:12:26.857Z,67.11
2016-08-15T17:17:24.548Z,66.24
2016-08-15T17:22:22.219Z,66.72
2016-08-15T17:27:19.829Z,65.59
2016-08-15T17:32:17.413Z,65.17
2016-08-15T17:37:15.277Z,66.05
2016-08-15T17:42:12.948Z,66.69
2016-08-15T17:47:10.565Z,67.46
2016-08-15T17:52:08.166Z,68.29
2016-08-15T17:57:05.938Z,68.19
2016-08-15T18:02:03.311Z,68.01
2016-08-15T18:07:00.794Z,67.78
2016-08-15T18:11:58.399Z,68.07
2016-08-15T18:16:56.016Z,68.55
2016-08-15T18:21:53.522Z,68.84
2016-08-15T18:26:51.109Z,69.13
2016-08-15T18:31:48.805Z,69.29
2016-08-15T18:36:46.557Z,70.54
2016-08-15T18:41:44.081Z,70.83
2016-08-15T18:46:41.575Z,71.60
2016-08-15T18:51:39.338Z,72.24
2016-08-15T18:56:36.612Z,72.72
2016-08-15T19:01:34.141Z,73.68
2016-08-15T19:06:31.723Z,74.16
2016-08-15T19:11:29.363Z,74.26
2016-08-15T19:16:27.286Z,73.53
2016-08-15T19:21:24.782Z,72.95
2016-08-15T19:26:22.321Z,73.14
2016-08-15T19:31:19.734Z,73.05
2016-08-15T19:36:17.305Z,73.53
2016-08-15T19:41:14.959Z,73.33
2016-08-15T19:46:12.613Z,73.82
2016-08-15T19:51:10.137Z,73.72
2016-08-15T19:56:07.955Z,73.62
2016-08-15T20:01:05.606Z,73.91
2016-08-15T20:06:03.623Z,73.82
2016-08-15T20:11:01.235Z,74.49
2016-08-15T20:15:58.653Z,74.40
2016-08-15T20:20:56.238Z,74.68
2016-08-15T20:25:53.929Z,74.40
2016-08-15T20:30:51.702Z,74.43
2016-08-15T20:35:49.314Z,74.33
2016-08-15T20:40:46.960Z,74.24
2016-08-15T20:45:44.675Z,75.10
2016-08-15T20:50:42.353Z,74.82
2016-08-15T20:55:40.152Z,75.16
2016-08-15T21:00:37.624Z,75.10
2016-08-15T21:05:35.266Z,75.40
2016-08-15T21:10:32.968Z,75.20
2016-08-15T21:15:30.503Z,75.40
2016-08-15T21:20:27.975Z,75.78
2016-08-15T21:25:25.432Z,75.93
2016-08-15T21:30:23.146Z,75.74
2016-08-15T21:35:20.871Z,75.74
2016-08-15T21:40:18.773Z,75.74
2016-08-15T21:45:16.444Z,75.74
2016-08-15T21:50:14.075Z,75.74
2016-08-15T21:55:11.704Z,76.03
2016-08-15T22:00:09.298Z,75.93
2016-08-15T22:05:07.150Z,76.03
2016-08-15T22:10:04.756Z,75.74
2016-08-15T22:15:02.703Z,75.93
2016-08-15T22:20:00.289Z,75.84
2016-08-15T22:24:58.067Z,75.93
2016-08-15T22:29:55.718Z,75.93
2016-08-15T22:34:53.441Z,75.65
2016-08-15T22:39:51.290Z,75.93
2016-08-15T22:44:49.058Z,75.65
2016-08-15T22:49:46.702Z,76.71
2016-08-15T22:54:44.598Z,75.74
2016-08-15T22:59:42.132Z,75.84
2016-08-15T23:04:39.651Z,76.03
2016-08-15T23:09:37.294Z,76.03
2016-08-15T23:14:34.973Z,76.80
2016-08-15T23:19:32.473Z,76.03
2016-08-15T23:24:30.378Z,76.32
2016-08-15T23:29:28.221Z,75.93
2016-08-15T23:34:26.021Z,76.51
2016-08-15T23:39:23.909Z,75.93
2016-08-15T23:44:21.503Z,76.03
2016-08-15T23:49:19.124Z,75.65
2016-08-15T23:54:16.619Z,76.71
2016-08-15T23:59:14.344Z,76.13
